Osan Air Base
RKSO : now visible

Airfield :











YOU CAN JOIN US ON...

 
LOGIN :

Register | Disclaimer

   EN    FR    IT 

 









Legend :    VFR   Marginal VFR   IFR   Intensive IFR   Very Intensive IFR
Visi :
Ceiling :
>= 8 km
>= 3000ft
5 to 8 km
1000 to 3000 ft
1500m to 5 km
500 to 1000 ft
800 to 1500m
200 to 500 ft
< 800m
< 200 ft
Symbols :   Thunderstorms  Fog  Heavy snow  Heavy precipitations  Wind > 20 kt






- Airport Elevation : 38 ft
- IATA code : OSN


RKSO - Osan Air Base

CURRENT METAR :
  • 261427Z 27005KT 5SM BR OVC008 18/16 A2960 RMK AO2A RAE1357 CIG 006V008 SLP027 $

EXPIRED METARs :
  • 261412Z 28007KT 5SM BR OVC006 18/17 A2960 RMK AO2A RAE1357 SLP027 $
  • 261357Z 29010KT 5SM BR OVC005 18/17 A2959 RMK AO2A RAE57 SLP024 $
  • 261338Z 29010KT 3SM -RA BR OVC005 18/17 A2960 RMK AO2A RAB38 SLP027 $
  • 261310Z 28009KT 5SM BR OVC005 18/18 A2960 RMK AO2A SLP027 $
  • 261255Z 28011G21KT 6SM BR OVC006 19/18 A2960 RMK AO2A RAE08RAB29E39 SLP027 P0001 T01880178 $
  • 261239Z 29013G20KT 4SM BR OVC005 20/18 A2959 RMK AO2A RAE08RAB29E39 SLP024 $
  • 261229Z 28012G17KT 3SM -RA BR OVC005 20/19 A2959 RMK AO2A VIS 2 1/2 RWY09 RAE08RAB29 SLP024 $
  • 261208Z 28010KT 5SM BR OVC005 20/20 A2958 RMK AO2A RAE08 SLP020 $
  • 261155Z 27011KT 4SM -RA BR OVC005 20/20 A2958 RMK AO2A VIS 2 3/4 RWY09 SLP020 P0000 60025 T02040197 10206 20190 50002 $
  • 261125Z 25010KT 4SM -RA OVC007 21/20 A2957 RMK AO2A SLP017 $
  • 261110Z 25010KT 4SM -RA OVC007 21/20 A2958 RMK AO2A SLP020 $
  • 261046Z 26009KT 4SM -RA BKN008 OVC013 21/19 A2958 RMK AO2A RAE00RAB46 CIG 008V010 SLP020 $
  • 261055Z 25009KT 4SM -RA BR FEW003 OVC008 21/19 A2958 RMK AO2A RAE00RAB46 CIG 008V010 OVC V BKN SLP020 P0001 T02060194 $
  • 261015Z 25004KT 7SM BKN009 OVC021 20/19 A2958 RMK AO2A RAE00 CIG 006V021 BKN V SCT CIG 007 RWY09 SLP020 $
  • 260955Z 21005KT 3SM -RA BR BKN006 OVC023 20/19 A2957 RMK AO2A VIS 2 RWY09 CIG 005 RWY09 SLP017 P0008 T01990192 $

TAF TAF RKSO
Valid from the 26 at 09:00 until the 27 at 15:00 UTC


260900Z 2609/2715 22005KT 4800 -RA BR BKN008 OVC015 QNH2958INS
TEMPO 2609/2614 1600 BR BKN003 OVC009
BECMG 2614/2615 28009KT 8000 BR BKN010 QNH2959INS
BECMG 2620/2621 28009KT 9000 BR FEW030 510052 QNH2960INS
BECMG 2700/2701 29015G20KT 9999 NSW FEW030 520052 QNH2962INS
BECMG 2709/2710 29010KT 9999 FEW035 SCT055 QNH2965INS TX19/2705Z TN15/2618Z LAST NO AMDS AFT 2610 NEXT 2713
RKRR FIR / Asia



MET'MAP, your aeronautical weather chart ! - Copyright ORBIFLY December 2007 - Disclaimer

ORBIFLY MET'MAP TEAM :

Programming & Development : Alexandra Zaïnal
Original concept : Baudouin d'Aumeries
Technical & hardware support : Manuel Goepfert
Assistance : Marc-Olivier Méhu




SOURCES & CREDITS :

   NOAA       Earth
Advisory